Time;durP1;ratioP1;P1;durP2;ratioP2;P2;SDS_P1;SDS_P2;PMS_P1;PMS_P2;Temp;Humidity;BMP_temperature;BMP_pressure;BME280_temperature;BME280_humidity;BME280_pressure;Samples;Min_cycle;Max_cycle;Signal;HPM_P1;HPM_P2
2023/09/05 00:00:10;;;;;;;8.33;3.10;;;19.10;99.90;;;;;;5029200;28;20889;-75
2023/09/05 00:02:39;;;;;;;7.93;2.90;;;19.00;99.90;;;;;;5027132;28;20406;-75
2023/09/05 00:05:07;;;;;;;8.13;2.90;;;18.90;99.90;;;;;;5027480;28;20399;-75
2023/09/05 00:07:35;;;;;;;6.57;2.60;;;18.80;99.90;;;;;;5027428;28;20407;-75
2023/09/05 00:10:01;;;;;;;7.13;2.63;;;18.80;99.90;;;;;;5028881;28;20385;-75
2023/09/05 00:12:27;;;;;;;8.13;2.70;;;18.80;89.30;;;;;;5028477;28;20423;-75
2023/09/05 00:14:53;;;;;;;9.23;2.80;;;18.80;35.60;;;;;;5028151;28;20449;-76
2023/09/05 00:17:18;;;;;;;7.40;2.90;;;18.80;13.80;;;;;;5016895;28;20397;-75
2023/09/05 00:19:44;;;;;;;7.60;3.10;;;18.80;1.00;;;;;;5025689;28;20893;-75
2023/09/05 00:22:09;;;;;;;7.93;2.70;;;18.80;1.00;;;;;;5028150;28;20461;-75
2023/09/05 00:24:39;;;;;;;7.10;2.80;;;18.80;1.00;;;;;;5029384;28;20387;-75
2023/09/05 00:27:09;;;;;;;7.50;2.60;;;18.80;1.00;;;;;;5027843;28;20423;-75
2023/09/05 00:29:35;;;;;;;8.07;2.75;;;18.80;1.00;;;;;;5028122;28;20422;-75
2023/09/05 00:32:03;;;;;;;7.63;2.60;;;18.80;1.00;;;;;;5028000;28;20403;-75
2023/09/05 00:34:31;;;;;;;8.83;2.77;;;18.70;1.00;;;;;;5027947;28;20441;-75
2023/09/05 00:36:58;;;;;;;7.93;2.60;;;18.70;1.00;;;;;;5026927;28;20446;-75
2023/09/05 00:39:25;;;;;;;6.60;2.13;;;18.70;1.00;;;;;;5021424;28;20451;-75
2023/09/05 00:41:51;;;;;;;6.30;1.90;;;18.70;1.00;;;;;;5010339;28;20400;-75
2023/09/05 00:44:17;;;;;;;8.40;2.70;;;18.80;1.00;;;;;;5023930;28;20395;-74
2023/09/05 00:46:46;;;;;;;7.00;2.20;;;18.90;1.00;;;;;;5028765;28;20553;-75
2023/09/05 00:49:15;;;;;;;9.55;2.20;;;18.90;1.00;;;;;;5011165;28;20972;-75
2023/09/05 00:51:43;;;;;;;6.63;2.80;;;18.90;1.00;;;;;;5028746;28;20391;-75
2023/09/05 00:54:10;;;;;;;8.27;2.20;;;19.00;1.00;;;;;;5028806;28;20442;-75
2023/09/05 00:56:37;;;;;;;9.20;2.30;;;19.00;1.00;;;;;;5029061;28;20418;-75
2023/09/05 00:59:04;;;;;;;9.70;2.35;;;18.90;1.00;;;;;;5029117;28;20462;-75
2023/09/05 01:01:29;;;;;;;6.53;2.00;;;18.80;1.00;;;;;;5038314;28;20464;-75
2023/09/05 01:03:57;;;;;;;8.23;2.30;;;18.80;1.00;;;;;;5036471;28;20475;-75
2023/09/05 01:06:40;;;;;;;6.57;2.20;;;18.50;1.00;;;;;;5030745;28;20893;-75
2023/09/05 01:09:35;;;;;;;8.70;2.30;;;18.30;1.00;;;;;;5031735;28;20411;-75
2023/09/05 01:12:01;;;;;;;8.00;2.10;;;18.10;99.90;;;;;;4991092;28;20425;-74
2023/09/05 01:14:27;;;;;;;7.40;2.25;;;17.90;99.90;;;;;;5031807;28;20394;-75
2023/09/05 01:17:01;;;;;;;6.67;2.10;;;17.70;99.90;;;;;;5031819;28;20497;-75
2023/09/05 01:19:28;;;;;;;6.55;2.13;;;17.70;1.00;;;;;;5031572;28;20426;-75
2023/09/05 01:22:20;;;;;;;6.97;2.38;;;17.70;1.00;;;;;;5030543;28;20414;-75
2023/09/05 01:24:49;;;;;;;9.80;2.20;;;17.50;99.90;;;;;;5012232;28;20416;-75
2023/09/05 01:27:17;;;;;;;7.78;2.00;;;17.40;99.90;;;;;;5024518;28;20486;-75
2023/09/05 01:29:44;;;;;;;8.38;2.60;;;17.30;99.90;;;;;;5014406;28;20405;-75
2023/09/05 01:32:10;;;;;;;6.82;2.20;;;17.20;99.90;;;;;;5028701;28;20411;-75
2023/09/05 01:34:36;;;;;;;6.73;1.77;;;17.20;99.90;;;;;;5031156;28;20879;-75
2023/09/05 01:37:01;;;;;;;6.20;2.25;;;17.10;99.90;;;;;;5031005;28;20464;-74
2023/09/05 01:39:27;;;;;;;6.73;2.40;;;17.10;99.90;;;;;;5013312;28;20429;-75
2023/09/05 01:41:52;;;;;;;7.23;1.90;;;17.10;99.90;;;;;;5032145;28;20388;-75
2023/09/05 01:44:18;;;;;;;7.97;2.10;;;17.20;1.00;;;;;;5032243;28;20405;-75
2023/09/05 01:46:44;;;;;;;6.60;2.20;;;17.40;99.90;;;;;;5031953;28;20415;-75
2023/09/05 01:49:10;;;;;;;5.88;1.88;;;17.70;13.80;;;;;;5031478;28;20410;-75
2023/09/05 01:51:36;;;;;;;5.97;1.70;;;17.90;1.00;;;;;;5031850;28;20388;-75
2023/09/05 01:54:02;;;;;;;6.43;1.90;;;18.10;1.00;;;;;;5031483;28;20438;-75
2023/09/05 01:56:27;;;;;;;6.13;1.65;;;18.30;1.00;;;;;;5031595;28;20383;-75
2023/09/05 01:58:53;;;;;;;6.05;1.60;;;18.40;1.00;;;;;;5031793;28;20402;-75
2023/09/05 02:01:19;;;;;;;6.70;2.20;;;18.50;1.00;;;;;;5031825;28;20398;-75
2023/09/05 02:03:45;;;;;;;6.28;1.90;;;18.60;1.00;;;;;;5031272;28;20387;-74
2023/09/05 02:06:13;;;;;;;5.57;1.63;;;18.60;1.00;;;;;;5031393;28;20419;-75
2023/09/05 02:08:39;;;;;;;7.35;1.88;;;18.70;1.00;;;;;;5031333;28;20792;-75
2023/09/05 02:11:04;;;;;;;7.03;1.80;;;18.60;1.00;;;;;;5030105;28;20537;-75
2023/09/05 02:13:30;;;;;;;6.47;2.00;;;18.70;1.00;;;;;;5030823;28;20510;-75
2023/09/05 02:15:55;;;;;;;6.38;1.67;;;18.70;1.00;;;;;;5034006;28;20421;-75
2023/09/05 02:18:21;;;;;;;5.78;1.80;;;18.60;1.00;;;;;;5029910;28;20412;-76
2023/09/05 02:20:46;;;;;;;8.07;2.15;;;18.50;1.00;;;;;;5017463;28;20419;-75
2023/09/05 02:23:12;;;;;;;6.60;1.93;;;18.50;1.00;;;;;;5029301;28;20910;-75
2023/09/05 02:25:38;;;;;;;6.30;1.70;;;18.60;1.00;;;;;;5028926;28;20838;-75
2023/09/05 02:28:04;;;;;;;6.88;2.15;;;18.50;1.00;;;;;;5018718;28;20490;-75
2023/09/05 02:30:31;;;;;;;6.63;1.90;;;18.50;1.00;;;;;;5032159;28;20870;-75
2023/09/05 02:32:57;;;;;;;6.70;1.60;;;18.50;1.00;;;;;;5029455;28;20423;-75
2023/09/05 02:35:23;;;;;;;7.97;1.40;;;18.40;1.00;;;;;;5032093;28;20392;-76
2023/09/05 02:37:50;;;;;;;7.95;2.08;;;18.40;1.00;;;;;;5017634;28;20385;-76
2023/09/05 02:40:16;;;;;;;8.52;2.13;;;18.30;1.00;;;;;;5007014;28;20399;-75
2023/09/05 02:42:42;;;;;;;6.90;1.80;;;18.30;1.00;;;;;;5016996;28;21066;-75
2023/09/05 02:45:08;;;;;;;6.45;2.05;;;18.30;1.00;;;;;;5027806;28;20510;-75
2023/09/05 02:47:34;;;;;;;6.30;1.70;;;18.30;1.00;;;;;;5030912;28;20490;-77
2023/09/05 02:49:59;;;;;;;8.05;2.30;;;18.30;1.00;;;;;;5031159;28;20506;-75
2023/09/05 02:52:25;;;;;;;7.10;1.70;;;18.30;1.00;;;;;;5029965;28;20433;-75
2023/09/05 02:54:51;;;;;;;7.57;2.05;;;18.20;1.00;;;;;;5030613;28;20834;-75
2023/09/05 02:57:16;;;;;;;7.63;2.27;;;18.20;1.00;;;;;;5030354;28;20437;-75
2023/09/05 02:59:42;;;;;;;6.55;1.98;;;18.20;1.00;;;;;;5013055;28;20791;-75
2023/09/05 03:02:07;;;;;;;6.78;1.92;;;18.20;1.00;;;;;;5029663;28;20446;-75
2023/09/05 03:04:33;;;;;;;8.05;1.73;;;18.20;1.00;;;;;;5028825;28;20492;-75
2023/09/05 03:07:01;;;;;;;7.30;2.30;;;18.10;1.00;;;;;;5029568;28;20422;-75
2023/09/05 03:09:26;;;;;;;6.43;1.90;;;18.10;1.00;;;;;;5030341;28;20409;-75
2023/09/05 03:11:52;;;;;;;6.53;2.00;;;18.10;1.00;;;;;;5030402;28;20399;-75
2023/09/05 03:14:17;;;;;;;6.72;1.70;;;18.10;1.00;;;;;;5030905;28;20407;-75
2023/09/05 03:16:43;;;;;;;6.30;2.00;;;18.10;1.00;;;;;;5029612;28;20495;-75
2023/09/05 03:19:11;;;;;;;7.33;1.60;;;18.20;1.00;;;;;;5029036;28;20413;-75
2023/09/05 03:21:37;;;;;;;6.30;1.90;;;18.10;1.00;;;;;;5029837;28;20453;-75
2023/09/05 03:24:03;;;;;;;7.10;2.07;;;18.10;1.00;;;;;;5019058;28;20419;-75
2023/09/05 03:26:29;;;;;;;6.43;2.00;;;18.10;1.00;;;;;;5029894;28;20418;-74
2023/09/05 03:28:55;;;;;;;7.00;1.93;;;18.20;1.00;;;;;;5029510;28;20735;-76
2023/09/05 03:31:22;;;;;;;6.30;1.70;;;18.20;1.00;;;;;;5028801;28;20961;-75
2023/09/05 03:33:47;;;;;;;7.70;2.00;;;18.20;1.00;;;;;;5030687;28;20750;-75
2023/09/05 03:36:14;;;;;;;6.32;1.70;;;18.10;1.00;;;;;;5021812;28;20413;-75
2023/09/05 03:38:39;;;;;;;6.87;1.93;;;18.10;1.00;;;;;;5021029;28;20462;-75
2023/09/05 03:41:05;;;;;;;6.43;1.93;;;18.00;1.00;;;;;;5031119;28;20406;-77
2023/09/05 03:43:31;;;;;;;8.05;2.20;;;18.00;1.00;;;;;;5030062;28;20402;-77
2023/09/05 03:45:57;;;;;;;6.55;1.92;;;17.90;1.00;;;;;;5021317;28;20520;-78
2023/09/05 03:48:22;;;;;;;7.15;1.83;;;17.90;1.00;;;;;;5028946;28;20409;-78
2023/09/05 03:50:48;;;;;;;6.75;1.70;;;17.80;1.00;;;;;;5032360;28;20426;-78
2023/09/05 03:53:13;;;;;;;6.20;1.90;;;17.70;1.00;;;;;;5021830;28;20514;-75
2023/09/05 03:55:39;;;;;;;7.07;2.20;;;17.70;1.00;;;;;;5023614;28;20514;-78
2023/09/05 03:58:04;;;;;;;5.90;1.70;;;17.70;1.00;;;;;;5035289;28;20399;-77
2023/09/05 04:00:35;;;;;;;6.70;1.90;;;17.80;1.00;;;;;;5026747;28;20511;-75
2023/09/05 04:03:02;;;;;;;5.88;1.75;;;17.70;1.00;;;;;;5025616;28;20406;-77
2023/09/05 04:05:28;;;;;;;8.60;2.20;;;17.80;1.00;;;;;;5027903;28;20415;-75
2023/09/05 04:07:54;;;;;;;5.93;2.20;;;17.80;1.00;;;;;;5028349;28;20403;-75
2023/09/05 04:10:20;;;;;;;5.70;1.30;;;17.60;1.00;;;;;;5016094;28;20467;-75
2023/09/05 04:12:45;;;;;;;6.40;1.80;;;17.70;1.00;;;;;;5024815;28;20391;-75
2023/09/05 04:15:11;;;;;;;7.38;1.60;;;17.70;1.00;;;;;;5027925;28;20782;-75
2023/09/05 04:17:37;;;;;;;6.68;1.95;;;17.70;1.00;;;;;;5027656;28;20446;-75
2023/09/05 04:20:06;;;;;;;6.80;2.13;;;17.70;1.00;;;;;;5028320;28;20407;-75
2023/09/05 04:22:32;;;;;;;7.00;1.77;;;17.70;1.00;;;;;;5028427;28;20391;-74
2023/09/05 04:24:57;;;;;;;6.65;1.80;;;17.70;1.00;;;;;;5025317;28;20418;-76
2023/09/05 04:27:23;;;;;;;6.30;1.73;;;17.60;1.00;;;;;;5027623;28;20476;-77
2023/09/05 04:29:54;;;;;;;6.85;2.25;;;17.60;1.00;;;;;;5011006;28;20468;-77
2023/09/05 04:32:26;;;;;;;7.20;1.80;;;17.50;1.00;;;;;;5027036;28;21081;-76
2023/09/05 04:34:56;;;;;;;7.15;2.20;;;17.50;1.00;;;;;;5022855;28;22794;-76
2023/09/05 04:37:21;;;;;;;9.30;2.10;;;17.50;1.00;;;;;;5023422;28;20905;-76
2023/09/05 04:39:47;;;;;;;6.63;2.30;;;17.40;1.00;;;;;;5022641;28;20413;-75
2023/09/05 04:42:12;;;;;;;6.40;1.70;;;17.40;28.40;;;;;;5031608;28;20422;-75
2023/09/05 04:44:38;;;;;;;6.70;1.90;;;17.40;99.90;;;;;;5013784;28;20403;-74
2023/09/05 04:47:27;;;;;;;6.40;2.17;;;17.40;99.90;;;;;;5031509;28;20782;-76
2023/09/05 04:50:00;;;;;;;7.55;2.25;;;17.40;99.90;;;;;;5026119;28;20525;-76
2023/09/05 04:52:28;;;;;;;7.72;1.63;;;17.40;99.90;;;;;;5031853;28;20882;-76
2023/09/05 04:54:57;;;;;;;6.93;1.80;;;17.50;99.90;;;;;;5031657;28;20426;-75
2023/09/05 04:57:23;;;;;;;6.32;1.90;;;17.50;99.90;;;;;;5031884;28;20387;-77
2023/09/05 04:59:49;;;;;;;6.40;2.10;;;17.50;99.90;;;;;;5032062;28;20759;-74
2023/09/05 05:02:15;;;;;;;8.43;1.70;;;17.40;99.90;;;;;;5031512;28;20410;-75
2023/09/05 05:04:43;;;;;;;7.67;2.13;;;17.40;99.90;;;;;;5030936;28;20828;-76
2023/09/05 05:07:09;;;;;;;6.90;1.83;;;17.30;99.90;;;;;;5030659;28;20423;-75
2023/09/05 05:09:34;;;;;;;6.45;1.90;;;17.30;1.00;;;;;;5015834;28;20974;-76
2023/09/05 05:12:00;;;;;;;7.30;2.40;;;17.30;99.90;;;;;;5027830;28;20379;-75
2023/09/05 05:14:27;;;;;;;6.78;2.13;;;17.10;99.90;;;;;;5026824;28;20419;-75
2023/09/05 05:16:53;;;;;;;6.82;2.30;;;17.00;1.00;;;;;;5028002;28;20534;-75
2023/09/05 05:19:21;;;;;;;6.50;1.73;;;16.90;1.00;;;;;;5016522;28;21063;-76
2023/09/05 05:21:46;;;;;;;6.50;2.00;;;16.90;1.00;;;;;;5005120;28;20419;-75
2023/09/05 05:24:12;;;;;;;7.50;1.80;;;17.00;1.00;;;;;;5031286;28;21024;-74
2023/09/05 05:26:38;;;;;;;6.38;1.92;;;17.00;99.90;;;;;;5030958;28;20419;-74
2023/09/05 05:29:03;;;;;;;7.25;2.10;;;17.20;34.00;;;;;;5030084;28;20491;-74
2023/09/05 05:31:29;;;;;;;6.53;2.00;;;17.40;1.00;;;;;;5012670;28;20395;-74
2023/09/05 05:33:54;;;;;;;7.40;1.80;;;17.50;1.00;;;;;;5024101;28;21113;-77
2023/09/05 05:36:21;;;;;;;7.37;2.10;;;17.60;99.90;;;;;;5032266;28;20801;-75
2023/09/05 05:38:46;;;;;;;7.00;2.17;;;17.70;99.90;;;;;;5031636;28;20391;-75
2023/09/05 05:41:13;;;;;;;5.90;1.80;;;17.70;99.90;;;;;;5030971;28;20402;-75
2023/09/05 05:43:38;;;;;;;6.95;2.00;;;17.80;99.90;;;;;;5030918;28;20756;-75
2023/09/05 05:46:04;;;;;;;7.18;2.13;;;17.90;99.90;;;;;;5030563;28;20418;-75
2023/09/05 05:48:29;;;;;;;8.80;2.50;;;18.00;99.90;;;;;;5030635;28;20858;-75
2023/09/05 05:50:58;;;;;;;6.00;1.80;;;18.10;99.90;;;;;;5030499;28;20402;-75
2023/09/05 05:53:24;;;;;;;7.22;2.50;;;18.20;99.90;;;;;;5012870;28;20398;-75
2023/09/05 05:55:50;;;;;;;7.38;2.10;;;18.30;99.90;;;;;;5031199;28;20516;-75
2023/09/05 05:58:15;;;;;;;7.90;2.10;;;18.50;97.50;;;;;;5031188;28;20913;-76
2023/09/05 06:00:45;;;;;;;6.47;2.10;;;18.60;70.00;;;;;;5032482;28;20431;-78
2023/09/05 06:03:11;;;;;;;8.63;2.10;;;18.70;21.30;;;;;;5032445;28;20385;-76
2023/09/05 06:05:37;;;;;;;7.80;1.83;;;19.00;1.00;;;;;;5027189;28;20484;-75
2023/09/05 06:08:03;;;;;;;7.05;2.10;;;20.00;1.00;;;;;;5038366;28;21008;-76
2023/09/05 06:10:28;;;;;;;7.80;2.13;;;21.80;1.00;;;;;;5030129;28;20423;-76
2023/09/05 06:12:54;;;;;;;6.10;1.67;;;23.60;99.90;;;;;;5030531;28;20474;-76
2023/09/05 06:15:20;;;;;;;6.40;2.13;;;27.20;99.90;;;;;;5033512;28;20758;-75
2023/09/05 06:17:45;;;;;;;6.50;2.00;;;27.20;99.90;;;;;;5031186;28;20419;-76
2023/09/05 06:20:11;;;;;;;6.95;2.03;;;28.50;99.90;;;;;;5031028;28;21340;-76
2023/09/05 06:22:38;;;;;;;6.20;1.70;;;29.70;99.90;;;;;;5031888;28;20812;-76
2023/09/05 06:25:05;;;;;;;7.50;1.80;;;30.70;99.90;;;;;;5029363;28;20421;-76
2023/09/05 06:27:31;;;;;;;5.90;1.98;;;30.80;99.90;;;;;;5027092;28;20406;-76
2023/09/05 06:29:56;;;;;;;7.43;2.13;;;31.20;99.90;;;;;;5029767;28;20407;-76
2023/09/05 06:32:22;;;;;;;6.65;2.15;;;31.30;99.90;;;;;;5029886;28;20457;-76
2023/09/05 06:34:47;;;;;;;6.00;1.87;;;31.60;99.90;;;;;;5020114;28;21047;-76
2023/09/05 06:37:13;;;;;;;5.65;1.55;;;31.80;99.90;;;;;;5010587;28;20403;-75
2023/09/05 06:39:39;;;;;;;6.78;1.67;;;32.10;99.90;;;;;;5025736;28;20446;-76
2023/09/05 06:42:08;;;;;;;6.37;1.80;;;31.90;99.90;;;;;;5042585;28;20411;-76
2023/09/05 06:44:33;;;;;;;7.70;2.00;;;31.80;99.90;;;;;;5029489;28;20900;-76
2023/09/05 06:46:59;;;;;;;5.80;1.90;;;32.00;99.90;;;;;;5029423;28;20561;-76
2023/09/05 06:49:31;;;;;;;6.90;1.90;;;;;;;;;;5029446;28;20410;-76
2023/09/05 06:51:57;;;;;;;6.30;1.52;;;32.70;99.90;;;;;;5024182;28;20450;-76
2023/09/05 06:54:22;;;;;;;6.20;1.70;;;32.50;99.90;;;;;;5014710;28;20423;-76
2023/09/05 06:56:48;;;;;;;8.40;1.70;;;32.40;99.90;;;;;;5013208;28;20553;-76
2023/09/05 06:59:17;;;;;;;6.47;1.53;;;32.50;99.90;;;;;;5022424;28;20546;-76
2023/09/05 07:01:46;;;;;;;6.40;1.70;;;32.30;99.90;;;;;;5020338;28;20569;-76
2023/09/05 07:04:13;;;;;;;6.88;2.20;;;32.60;99.90;;;;;;5028908;28;20411;-77
2023/09/05 07:06:39;;;;;;;6.00;1.98;;;32.70;99.90;;;;;;5029749;28;20446;-76
2023/09/05 07:09:06;;;;;;;7.07;2.30;;;33.10;99.90;;;;;;5027101;28;21093;-76
2023/09/05 07:11:32;;;;;;;7.50;1.80;;;33.10;99.90;;;;;;5023556;28;20491;-76
2023/09/05 07:13:57;;;;;;;7.00;1.93;;;33.00;99.90;;;;;;5031831;28;20415;-76
2023/09/05 07:16:23;;;;;;;7.53;1.90;;;32.90;99.90;;;;;;5028787;28;20414;-76
2023/09/05 07:18:48;;;;;;;5.93;1.83;;;32.80;99.90;;;;;;5028665;28;20905;-76
2023/09/05 07:21:15;;;;;;;6.13;1.80;;;33.00;99.90;;;;;;5028303;28;20747;-76
2023/09/05 07:23:40;;;;;;;5.90;1.70;;;33.10;99.90;;;;;;5029305;28;20441;-76
2023/09/05 07:26:06;;;;;;;7.70;1.97;;;33.20;99.90;;;;;;5021505;28;20456;-76
2023/09/05 07:28:32;;;;;;;6.17;1.70;;;32.80;99.90;;;;;;5024608;28;20981;-76
2023/09/05 07:30:58;;;;;;;7.68;1.50;;;31.50;99.90;;;;;;5026324;28;20405;-76
2023/09/05 07:33:23;;;;;;;6.43;2.40;;;31.40;99.90;;;;;;5028569;28;20395;-77
2023/09/05 07:35:49;;;;;;;5.70;1.73;;;31.80;99.90;;;;;;5029548;28;20410;-77
2023/09/05 07:38:15;;;;;;;6.65;1.70;;;32.00;99.90;;;;;;5028649;28;20814;-76
2023/09/05 07:40:41;;;;;;;6.28;2.00;;;31.40;99.90;;;;;;5028252;28;20443;-76
2023/09/05 07:43:07;;;;;;;7.28;2.20;;;31.40;99.90;;;;;;5028889;28;20419;-76
2023/09/05 07:45:33;;;;;;;6.80;1.85;;;30.70;99.90;;;;;;5028318;28;20426;-76
2023/09/05 07:47:59;;;;;;;6.10;1.83;;;30.60;1.00;;;;;;5028440;28;20411;-76
2023/09/05 07:50:25;;;;;;;5.73;1.87;;;30.30;99.90;;;;;;5028315;28;20770;-77
2023/09/05 07:52:50;;;;;;;5.67;1.50;;;30.20;99.90;;;;;;5026907;28;20399;-76
2023/09/05 07:55:16;;;;;;;5.97;1.60;;;30.10;99.90;;;;;;5028449;28;20426;-76
2023/09/05 07:57:42;;;;;;;8.25;1.90;;;29.70;99.90;;;;;;5028109;28;20702;-76
2023/09/05 08:00:15;;;;;;;6.00;1.67;;;30.50;99.90;;;;;;5028058;28;20497;-76
2023/09/05 08:02:41;;;;;;;6.30;1.52;;;31.20;99.90;;;;;;5027408;28;20477;-76
2023/09/05 08:05:07;;;;;;;5.60;1.50;;;31.50;99.90;;;;;;5028083;28;20813;-76
2023/09/05 08:07:33;;;;;;;6.15;1.55;;;31.70;99.90;;;;;;5027684;28;20778;-76
2023/09/05 08:10:00;;;;;;;6.20;1.80;;;31.60;99.90;;;;;;5028470;28;20411;-77
2023/09/05 08:12:26;;;;;;;5.70;1.50;;;30.90;99.90;;;;;;5026724;28;20999;-77
2023/09/05 08:14:51;;;;;;;5.93;1.55;;;31.70;99.90;;;;;;5026761;28;20494;-75
2023/09/05 08:17:17;;;;;;;5.90;1.50;;;31.70;99.90;;;;;;5021460;28;20451;-76
2023/09/05 08:19:44;;;;;;;5.87;1.50;;;31.80;99.90;;;;;;5026204;28;20407;-78
2023/09/05 08:22:10;;;;;;;5.53;1.30;;;31.20;99.90;;;;;;5024887;28;20462;-76
2023/09/05 08:24:35;;;;;;;7.38;2.00;;;31.70;1.00;;;;;;4991414;28;20393;-76
2023/09/05 08:27:02;;;;;;;6.43;1.60;;;31.30;1.00;;;;;;5008888;28;20416;-76
2023/09/05 08:29:27;;;;;;;6.32;1.50;;;30.50;99.90;;;;;;5009336;28;20875;-77
2023/09/05 08:31:54;;;;;;;5.80;1.50;;;30.90;99.90;;;;;;5018374;28;20521;-76
2023/09/05 08:34:19;;;;;;;5.70;1.47;;;31.70;99.90;;;;;;5028944;28;20395;-76
2023/09/05 08:36:45;;;;;;;6.30;1.70;;;32.00;99.90;;;;;;5029027;28;20426;-76
2023/09/05 08:39:11;;;;;;;5.60;1.40;;;;;;;;;;5026059;28;20401;-76
2023/09/05 08:41:37;;;;;;;5.40;1.30;;;31.40;99.90;;;;;;5013925;28;20412;-76
2023/09/05 08:44:04;;;;;;;6.35;1.60;;;31.20;99.90;;;;;;5008590;28;20397;-76
2023/09/05 08:46:31;;;;;;;5.90;1.40;;;31.50;99.90;;;;;;5020894;28;20427;-76
2023/09/05 08:48:56;;;;;;;5.73;1.60;;;31.50;99.90;;;;;;5028089;28;20478;-76
2023/09/05 08:51:26;;;;;;;6.17;1.50;;;32.00;99.90;;;;;;5028727;28;20897;-76
2023/09/05 08:53:58;;;;;;;6.30;1.70;;;32.10;99.90;;;;;;5029014;28;20402;-76
2023/09/05 08:56:25;;;;;;;6.00;1.60;;;;;;;;;;5028417;28;20735;-76
2023/09/05 08:58:56;;;;;;;5.80;1.58;;;34.30;99.90;;;;;;5028655;28;20520;-76
2023/09/05 09:01:24;;;;;;;6.28;1.75;;;33.90;99.90;;;;;;5029380;28;20387;-76
2023/09/05 09:03:51;;;;;;;5.95;1.80;;;;;;;;;;5028709;28;20390;-76
2023/09/05 09:06:24;;;;;;;6.82;1.70;;;33.60;99.90;;;;;;5010824;28;20423;-76
2023/09/05 09:08:50;;;;;;;5.60;1.50;;;32.90;99.90;;;;;;5029117;28;20382;-76
2023/09/05 09:11:19;;;;;;;5.30;1.20;;;32.60;99.90;;;;;;5010318;28;20897;-76
2023/09/05 09:13:47;;;;;;;6.60;1.52;;;32.20;99.90;;;;;;5028313;28;20469;-76
2023/09/05 09:16:17;;;;;;;5.70;1.80;;;;;;;;;;5028195;28;20407;-76
2023/09/05 09:18:46;;;;;;;5.60;1.80;;;32.40;99.90;;;;;;5025098;28;21428;-76
2023/09/05 09:21:14;;;;;;;5.50;1.50;;;;;;;;;;5015520;28;20401;-77
2023/09/05 09:23:40;;;;;;;7.65;1.60;;;32.90;99.90;;;;;;5008897;28;20393;-76
2023/09/05 09:26:07;;;;;;;5.37;1.17;;;33.10;99.90;;;;;;5009253;28;20801;-77
2023/09/05 09:28:32;;;;;;;6.40;1.77;;;33.90;99.90;;;;;;5018027;28;20383;-77
2023/09/05 09:31:03;;;;;;;5.85;1.48;;;;;;;;;;5032238;28;20403;-78
2023/09/05 09:33:31;;;;;;;6.50;1.50;;;34.90;99.90;;;;;;5027784;28;20379;-77
2023/09/05 09:36:00;;;;;;;6.65;1.70;;;;;;;;;;5039197;28;20383;-76
2023/09/05 09:38:26;;;;;;;6.20;1.50;;;35.30;99.90;;;;;;5037220;28;20391;-76
2023/09/05 09:40:52;;;;;;;5.80;1.50;;;;;;;;;;5033765;28;20399;-75
2023/09/05 09:43:18;;;;;;;5.85;1.60;;;;;;;;;;5031993;28;20410;-76
2023/09/05 09:45:44;;;;;;;5.50;1.60;;;35.20;99.90;;;;;;5031596;28;20427;-76
2023/09/05 09:48:14;;;;;;;6.18;1.58;;;35.20;99.90;;;;;;5031553;28;20445;-76
2023/09/05 09:50:40;;;;;;;6.20;1.90;;;;;;;;;;5041564;28;20455;-76
2023/09/05 09:53:11;;;;;;;5.60;1.55;;;;;;;;;;5050806;28;20456;-74
2023/09/05 09:55:41;;;;;;;6.13;1.50;;;36.20;99.90;;;;;;5047012;28;20434;-74
2023/09/05 09:58:10;;;;;;;5.30;1.55;;;35.80;99.90;;;;;;5019527;28;20399;-74
2023/09/05 10:00:38;;;;;;;5.10;1.50;;;;;;;;;;5029691;28;20493;-73
2023/09/05 10:03:08;;;;;;;5.80;1.80;;;;;;;;;;5030656;28;20729;-74
2023/09/05 10:05:34;;;;;;;7.00;1.70;;;36.40;99.90;;;;;;5029911;28;20415;-74
2023/09/05 10:08:00;;;;;;;5.28;1.30;;;36.40;99.90;;;;;;5030709;28;20952;-74
2023/09/05 10:10:26;;;;;;;8.48;1.60;;;;;;;;;;5029084;28;20411;-74
2023/09/05 10:12:56;;;;;;;5.30;1.30;;;;;;;;;;5012287;28;20483;-76
2023/09/05 10:15:22;;;;;;;5.28;1.35;;;;;;;;;;5037401;28;20533;-76
2023/09/05 10:17:50;;;;;;;6.57;1.80;;;34.80;99.90;;;;;;5031495;28;20893;-76
2023/09/05 10:20:19;;;;;;;5.38;1.40;;;34.40;99.90;;;;;;5031026;28;20821;-76
2023/09/05 10:22:46;;;;;;;5.90;1.50;;;34.90;99.90;;;;;;5030935;28;20466;-76
2023/09/05 10:25:14;;;;;;;5.40;1.20;;;35.60;99.90;;;;;;5030668;28;20427;-76
2023/09/05 10:27:40;;;;;;;5.20;1.30;;;35.80;99.90;;;;;;5029849;28;20399;-76
2023/09/05 10:30:07;;;;;;;4.70;1.00;;;35.30;99.90;;;;;;5012501;28;20992;-76
2023/09/05 10:32:33;;;;;;;5.20;1.40;;;34.80;99.90;;;;;;5030467;28;20889;-76
2023/09/05 10:35:02;;;;;;;6.10;1.50;;;34.50;99.90;;;;;;5030516;28;20468;-76
2023/09/05 10:37:34;;;;;;;5.68;1.40;;;34.50;99.90;;;;;;5012101;28;20422;-76
2023/09/05 10:40:10;;;;;;;5.20;1.05;;;34.10;99.90;;;;;;5030381;28;20921;-76
2023/09/05 10:42:44;;;;;;;5.50;1.02;;;34.30;99.90;;;;;;5013108;28;20740;-76
2023/09/05 10:45:21;;;;;;;6.10;1.40;;;33.70;99.90;;;;;;5010668;28;20397;-74
2023/09/05 10:47:49;;;;;;;4.80;0.80;;;32.30;99.90;;;;;;5010612;28;20397;-74
2023/09/05 10:50:19;;;;;;;6.15;1.52;;;31.50;99.90;;;;;;5021407;28;20878;-74
2023/09/05 10:53:10;;;;;;;5.97;1.50;;;31.20;99.90;;;;;;5030658;28;20379;-74
2023/09/05 10:55:50;;;;;;;5.00;0.90;;;30.70;99.90;;;;;;5030046;28;20411;-73
2023/09/05 10:58:37;;;;;;;7.80;1.40;;;31.00;99.90;;;;;;5029952;28;20465;-73
2023/09/05 11:01:34;;;;;;;5.10;1.08;;;31.20;99.90;;;;;;5029339;28;20461;-73
2023/09/05 11:04:13;;;;;;;5.70;1.50;;;31.50;99.90;;;;;;5030041;28;20505;-73
2023/09/05 11:06:39;;;;;;;5.82;1.10;;;32.00;99.90;;;;;;5029582;28;20932;-76
2023/09/05 11:09:06;;;;;;;6.57;1.48;;;32.90;99.90;;;;;;5029967;28;20731;-75
2023/09/05 11:11:37;;;;;;;6.75;1.50;;;33.30;99.90;;;;;;5029851;28;20383;-75
2023/09/05 11:14:06;;;;;;;5.50;1.10;;;32.80;99.90;;;;;;5029823;28;20430;-75
2023/09/05 11:16:47;;;;;;;5.45;1.30;;;32.40;99.90;;;;;;5027067;28;20445;-76
2023/09/05 11:19:27;;;;;;;5.60;1.50;;;32.80;99.90;;;;;;5017751;28;20402;-77
2023/09/05 11:22:25;;;;;;;5.18;1.13;;;32.70;99.90;;;;;;5028741;28;20882;-75
2023/09/05 11:24:51;;;;;;;5.47;1.10;;;32.50;99.90;;;;;;5027964;28;20399;-75
2023/09/05 11:27:22;;;;;;;5.82;0.90;;;32.00;99.90;;;;;;5019073;28;20438;-73
2023/09/05 11:29:51;;;;;;;6.00;1.80;;;31.20;99.90;;;;;;5027945;28;20453;-73
2023/09/05 11:32:17;;;;;;;5.78;1.45;;;30.40;99.90;;;;;;5025288;28;20391;-73
2023/09/05 11:34:46;;;;;;;5.43;1.10;;;30.30;99.90;;;;;;5019149;28;20405;-74
2023/09/05 11:37:20;;;;;;;5.80;1.20;;;30.50;99.90;;;;;;5029756;28;20395;-73
2023/09/05 11:39:48;;;;;;;5.43;1.20;;;30.40;99.90;;;;;;5029424;28;20471;-74
2023/09/05 11:42:32;;;;;;;4.90;1.17;;;30.50;99.90;;;;;;5029106;28;20924;-73
2023/09/05 11:44:58;;;;;;;5.75;1.58;;;30.60;99.90;;;;;;5029461;28;20739;-74
2023/09/05 11:47:26;;;;;;;5.33;1.30;;;30.20;99.90;;;;;;5029547;28;20415;-74
2023/09/05 11:49:53;;;;;;;5.50;1.40;;;29.80;99.90;;;;;;5029228;28;20448;-76
2023/09/05 11:52:20;;;;;;;5.30;1.38;;;29.80;99.90;;;;;;5011892;28;20437;-75
2023/09/05 11:54:50;;;;;;;5.20;1.20;;;30.00;99.90;;;;;;5024664;28;20423;-76
2023/09/05 11:57:20;;;;;;;5.93;1.70;;;30.20;99.90;;;;;;5020721;28;20449;-74
2023/09/05 11:59:47;;;;;;;7.60;1.40;;;30.50;99.90;;;;;;5027715;28;20394;-74
2023/09/05 12:02:17;;;;;;;6.15;1.50;;;30.50;99.90;;;;;;5025404;28;20417;-73
2023/09/05 12:04:44;;;;;;;5.45;1.20;;;30.70;99.90;;;;;;5018541;28;20430;-73
2023/09/05 12:07:09;;;;;;;6.18;1.25;;;30.80;99.90;;;;;;5010003;28;20434;-74
2023/09/05 12:09:35;;;;;;;5.75;1.20;;;30.80;99.90;;;;;;5027175;28;20850;-73
2023/09/05 12:12:15;;;;;;;5.30;1.30;;;30.50;99.90;;;;;;5021685;28;20431;-75
2023/09/05 12:15:07;;;;;;;6.10;1.65;;;30.50;99.90;;;;;;5026232;28;20408;-75
2023/09/05 12:17:32;;;;;;;5.30;1.13;;;30.70;99.90;;;;;;5003546;28;20502;-75
2023/09/05 12:19:58;;;;;;;5.57;1.40;;;30.70;99.90;;;;;;5026884;28;20439;-75
2023/09/05 12:22:25;;;;;;;5.40;1.20;;;30.20;99.90;;;;;;5028261;28;20395;-74
2023/09/05 12:25:11;;;;;;;5.18;1.20;;;30.10;99.90;;;;;;5026612;28;20597;-74
2023/09/05 12:27:38;;;;;;;5.40;1.40;;;30.50;99.90;;;;;;5024459;28;20425;-74
2023/09/05 12:30:05;;;;;;;5.17;1.03;;;30.70;99.90;;;;;;5028063;28;20729;-74
2023/09/05 12:32:31;;;;;;;5.20;1.50;;;30.40;99.90;;;;;;5027477;28;20916;-74
2023/09/05 12:34:57;;;;;;;4.87;1.30;;;30.30;99.90;;;;;;5026429;28;20429;-75
2023/09/05 12:37:22;;;;;;;5.30;1.40;;;30.40;99.90;;;;;;5027503;28;20414;-75
2023/09/05 12:39:50;;;;;;;6.10;1.40;;;30.80;99.90;;;;;;5028894;28;20747;-75
2023/09/05 12:42:16;;;;;;;5.10;1.10;;;31.10;99.90;;;;;;5025357;28;20728;-74
2023/09/05 12:44:41;;;;;;;5.80;1.10;;;31.10;99.90;;;;;;5028047;28;20399;-75
2023/09/05 12:47:08;;;;;;;6.80;1.50;;;31.10;99.90;;;;;;5027805;28;20426;-75
2023/09/05 12:49:36;;;;;;;6.10;1.55;;;30.90;99.90;;;;;;5009583;28;20506;-74
2023/09/05 12:52:03;;;;;;;6.03;1.60;;;30.50;99.90;;;;;;5026577;28;20391;-74
2023/09/05 12:54:30;;;;;;;5.70;1.40;;;30.30;99.90;;;;;;5025803;28;20776;-74
2023/09/05 12:56:56;;;;;;;5.95;0.90;;;30.40;99.90;;;;;;5027347;28;20876;-74